Flight Track Log - Related Links

Times and Time Zones

All times are in EDT time to prevent confusion due to time zone crossing. See the N502QS flight status page for this flight to view local times or setup timezone preferences in your user account.

Time Position Orientation Groundspeed Altitude Reporting Facility
EDT Latitude Longitude Course Direction KTS MPH feet Rate Location/Type
Fri 12:57:44 AM 40.9000 -74.0333 66° East 186 214 2,300  Level New York TRACON
Fri 12:59:42 AM 41.0044 -73.9392 34° Northeast 261 300 7,600 2,933 Climbing Boston Center
Fri 01:00:42 AM 41.0642 -73.8497 48° Northeast 284 327 11,000 2,650 Climbing Boston Center
Fri 01:01:42 AM 41.1047 -73.7569 60° Northeast 310 357 12,900 2,100 Climbing Boston Center
Fri 01:02:42 AM 41.1625 -73.6311 59° Northeast 341 392 15,200 2,100 Climbing Boston Center
Fri 01:03:00 AM 41.2888 -73.4837 66° East  Level FlightAware Approximate
Fri 01:03:42 AM 41.2117 -73.5133 61° Northeast 374 430 17,100  Level Boston Center
Fri 01:04:42 AM 41.2731 -73.3847 58° Northeast 402 463 19,200 2,050 Climbing Boston Center
Fri 01:05:42 AM 41.3347 -73.2500 59° Northeast 417 480 21,200 2,050 Climbing Boston Center
Fri 01:06:42 AM 41.3981 -73.1042 60° Northeast 429 494 23,300 2,250 Climbing Boston Center
Fri 01:07:42 AM 41.4614 -72.9581 60° Northeast 441 507 25,700 1,900 Climbing Boston Center
Fri 01:08:42 AM 41.5286 -72.8089 59° Northeast 447 514 27,100 1,650 Climbing Boston Center
Fri 01:09:42 AM 41.6042 -72.6428 59° Northeast 461 531 29,000 1,650 Climbing Boston Center
Fri 01:10:42 AM 41.7000 -72.5014 48° Northeast 500 575 30,400 1,400 Climbing Boston Center
Fri 01:11:42 AM 41.7981 -72.3622 47° Northeast 505 581 31,800 1,250 Climbing Boston Center
Fri 01:12:42 AM 41.9019 -72.2114 47° Northeast 520 598 32,900 1,300 Climbing Boston Center
Fri 01:13:42 AM 42.0058 -72.0631 47° Northeast 532 612 34,400 1,550 Climbing Boston Center
Fri 01:14:42 AM 42.1094 -71.9139 47° Northeast 538 619 36,000 1,500 Climbing Boston Center
Fri 01:15:42 AM 42.2150 -71.7617 47° Northeast 538 619 37,400 1,500 Climbing Boston Center
Fri 01:16:42 AM 42.3142 -71.6147 48° Northeast 543 625 39,000 1,400 Climbing Boston Center
Fri 01:17:42 AM 42.4172 -71.4697 46° Northeast 538 619 40,200 950 Climbing Boston Center
Fri 01:18:42 AM 42.5200 -71.3217 47° Northeast 532 612 40,900 350 Climbing Boston Center
Fri 01:19:42 AM 42.6183 -71.1733 48° Northeast 527 606 40,900  Level Boston Center
Fri 01:20:42 AM 42.7208 -71.0214 47° Northeast 527 606 40,900  Level Boston Center
Fri 01:21:42 AM 42.8208 -70.8692 48° Northeast 533 613 40,900  Level Boston Center
Fri 01:22:42 AM 42.9231 -70.7161 48° Northeast 533 613 40,900  Level Boston Center
Fri 01:23:42 AM 43.0106 -70.5803 49° Northeast 533 613 40,900  Level Boston Center
Fri 01:24:42 AM 43.1100 -70.4264 48° Northeast 533 613 40,900  Level Boston Center
Fri 01:25:42 AM 43.2092 -70.2694 49° Northeast 533 613 40,900  Level Boston Center
Fri 01:26:42 AM 43.3103 -70.1144 48° Northeast 533 613 40,900  Level Boston Center
Fri 01:27:42 AM 43.4072 -69.9622 49° Northeast 533 613 40,900  Level Boston Center
Fri 01:28:42 AM 43.5078 -69.8036 49° Northeast 538 619 40,900  Level Boston Center
Fri 01:29:42 AM 43.6064 -69.6500 48° Northeast 538 619 40,900  Level Boston Center
Fri 01:30:42 AM 43.7067 -69.4931 48° Northeast 538 619 40,900  Level Boston Center
Fri 01:31:42 AM 43.8067 -69.3328 49° Northeast 538 619 40,900  Level Boston Center
Fri 01:32:42 AM 43.9064 -69.1750 49° Northeast 543 625 40,900  Level Boston Center
Fri 01:33:42 AM 43.9861 -69.0464 49° Northeast 543 625 40,900  Level Boston Center
Fri 01:34:42 AM 44.1056 -68.8575 49° Northeast 543 625 40,900 150 Level Boston Center
Fri 01:35:42 AM 44.2044 -68.6950 50° Northeast 543 625 41,200 350 Climbing Boston Center
Fri 01:36:42 AM 44.3014 -68.5381 49° Northeast 543 625 41,600 450 Climbing Boston Center
Fri 01:37:42 AM 44.4000 -68.3775 49° Northeast 543 625 42,100 550 Climbing Boston Center
Fri 01:38:42 AM 44.4986 -68.2164 49° Northeast 543 625 42,700 400 Climbing Boston Center
Fri 01:39:42 AM 44.5928 -68.0608 50° Northeast 536 617 42,900 100 Climbing Boston Center
Fri 01:40:42 AM 44.6869 -67.9078 49° Northeast 524 603 42,900  Level Boston Center
Fri 01:41:42 AM 44.7847 -67.7450 50° Northeast 524 603 42,900  Level Boston Center
Fri 01:42:42 AM 44.8858 -67.5728 50° Northeast 524 603 42,900  Level Boston Center
Fri 01:43:27 AM 44.9333 -67.4500 61° Northeast 530 610 42,900  Level Moncton Center
Fri 01:44:27 AM 45.0333 -67.2833 50° Northeast 520 598 42,900  Level Moncton Center
Fri 01:45:27 AM 45.1167 -67.1167 55° Northeast 520 598 42,900  Level Moncton Center
Fri 01:46:27 AM 45.2167 -66.9833 43° Northeast 520 598 42,900  Level Moncton Center
Fri 01:47:27 AM 45.3167 -66.8000 52° Northeast 520 598 42,900  Level Moncton Center
Fri 01:48:27 AM 45.4000 -66.6667 48° Northeast 520 598 42,900  Level Moncton Center
Fri 01:49:27 AM 45.5000 -66.5000 49° Northeast 520 598 42,900  Level Moncton Center
Fri 01:50:27 AM 45.6000 -66.3167 52° Northeast 530 610 42,900  Level Moncton Center
Fri 01:51:27 AM 45.6833 -66.1667 51° Northeast 530 610 42,900  Level Moncton Center
Fri 01:52:27 AM 45.7667 -66.0000 54° Northeast 530 610 42,900  Level Moncton Center
Fri 01:53:27 AM 45.8667 -65.8333 49° Northeast 530 610 42,900  Level Moncton Center
Fri 01:54:27 AM 45.9500 -65.6667 54° Northeast 530 610 42,900  Level Moncton Center
Fri 01:55:27 AM 46.0500 -65.5000 49° Northeast 530 610 42,900  Level Moncton Center
Fri 01:56:27 AM 46.1333 -65.3333 54° Northeast 530 610 42,900  Level Moncton Center
Fri 01:57:27 AM 46.2167 -65.1667 54° Northeast 530 610 42,900  Level Moncton Center
Fri 01:58:27 AM 46.3333 -65.0000 45° Northeast 530 610 42,900  Level Moncton Center
Fri 01:59:27 AM 46.4167 -64.8333 54° Northeast 530 610 42,900  Level Moncton Center
Fri 02:00:27 AM 46.5167 -64.6333 54° Northeast 530 610 42,900  Level Moncton Center
Fri 02:01:27 AM 46.6000 -64.5000 48° Northeast 530 610 42,900  Level Moncton Center
Fri 02:02:27 AM 46.7000 -64.3000 54° Northeast 530 610 42,900  Level Moncton Center
Fri 02:03:27 AM 46.7833 -64.1333 54° Northeast 530 610 42,900  Level Moncton Center
Fri 02:04:27 AM 46.8667 -63.9833 51° Northeast 530 610 42,900  Level Moncton Center
Fri 02:05:03 AM 46.9167 -63.8500 61° Northeast 530 610 42,900  Level Gander Center
Fri 02:06:03 AM 47.0000 -63.6833 54° Northeast 540 621 42,900  Level Gander Center
Fri 02:07:03 AM 47.0833 -63.5167 54° Northeast 540 621 42,900  Level Gander Center
Fri 02:08:03 AM 47.2000 -63.3500 44° Northeast 530 610 42,900  Level Gander Center
Fri 02:09:03 AM 47.2833 -63.1833 54° Northeast 530 610 42,900  Level Gander Center
Fri 02:10:03 AM 47.3667 -62.9833 58° Northeast 530 610 42,900  Level Gander Center
Fri 02:11:03 AM 47.4500 -62.8167 53° Northeast 530 610 42,900  Level Gander Center
Fri 02:12:03 AM 47.5333 -62.6500 53° Northeast 530 610 42,900  Level Gander Center
Fri 02:13:03 AM 47.6167 -62.4667 56° Northeast 530 610 42,900  Level Gander Center
Fri 02:14:03 AM 47.7167 -62.3000 48° Northeast 530 610 42,900  Level Gander Center
Fri 02:15:03 AM 47.8000 -62.1000 58° Northeast 530 610 42,900  Level Gander Center
Fri 02:16:03 AM 47.8833 -61.9333 53° Northeast 530 610 42,900  Level Gander Center
Fri 02:17:03 AM 47.9833 -61.7500 51° Northeast 530 610 42,900  Level Gander Center
Fri 02:18:03 AM 48.0667 -61.5500 58° Northeast 540 621 42,900  Level Gander Center
Fri 02:19:03 AM 48.1500 -61.3833 53° Northeast 530 610 42,900  Level Gander Center
Fri 02:20:03 AM 48.2333 -61.2000 56° Northeast 530 610 42,900  Level Gander Center
Fri 02:21:03 AM 48.3167 -61.0333 53° Northeast 530 610 42,900  Level Gander Center
Fri 02:22:03 AM 48.4000 -60.8333 58° Northeast 530 610 42,900  Level Gander Center
Fri 02:23:03 AM 48.4833 -60.6500 56° Northeast 530 610 42,900  Level Gander Center
Fri 02:24:03 AM 48.5667 -60.4667 55° Northeast 530 610 42,900  Level Gander Center
Fri 02:25:03 AM 48.6500 -60.3000 53° Northeast 530 610 42,900  Level Gander Center
Fri 02:26:03 AM 48.7500 -60.0833 55° Northeast 530 610 42,900  Level Gander Center
Fri 02:27:03 AM 48.8167 -59.9167 59° Northeast 530 610 42,900  Level Gander Center
Fri 02:28:03 AM 48.9000 -59.7333 55° Northeast 530 610 42,900  Level Gander Center
Fri 02:29:03 AM 48.9833 -59.5500 55° Northeast 530 610 42,900  Level Gander Center
Fri 02:30:03 AM 49.0667 -59.3667 55° Northeast 530 610 42,900  Level Gander Center
Fri 02:31:03 AM 49.1500 -59.1667 57° Northeast 530 610 42,900  Level Gander Center
Fri 02:32:03 AM 49.2333 -58.9833 55° Northeast 530 610 42,900  Level Gander Center
Fri 02:33:03 AM 49.3000 -58.8000 61° Northeast 530 610 42,900  Level Gander Center
Fri 02:34:03 AM 49.3833 -58.5833 59° Northeast 530 610 42,900  Level Gander Center
Fri 02:35:03 AM 49.4667 -58.4000 55° Northeast 530 610 42,900  Level Gander Center
Fri 02:36:03 AM 49.5333 -58.1833 65° Northeast 530 610 42,900  Level Gander Center
Fri 02:37:03 AM 49.6000 -58.0000 61° Northeast 530 610 42,900  Level Gander Center
Fri 02:38:03 AM 49.6667 -57.8167 61° Northeast 520 598 42,900  Level Gander Center
Fri 02:39:03 AM 49.7500 -57.6000 59° Northeast 530 610 42,900  Level Gander Center
Fri 02:40:03 AM 49.8000 -57.4167 67° East 530 610 42,900  Level Gander Center
Fri 02:41:03 AM 49.8833 -57.2000 59° Northeast 530 610 42,900  Level Gander Center
Fri 02:42:03 AM 49.9333 -57.0000 69° East 520 598 42,900  Level Gander Center
Fri 02:43:03 AM 50.0167 -56.8000 57° Northeast 520 598 42,900  Level Gander Center
Fri 02:44:03 AM 50.0833 -56.6167 60° Northeast 520 598 42,900  Level Gander Center
Fri 02:45:03 AM 50.1333 -56.4000 70° East 530 610 42,900  Level Gander Center
Fri 02:46:03 AM 50.2167 -56.2167 55° Northeast 520 598 42,900  Level Gander Center
Fri 02:47:03 AM 50.2667 -56.0000 70° East 520 598 42,900  Level Gander Center
Fri 02:48:03 AM 50.3333 -55.7833 64° Northeast 520 598 42,900  Level Gander Center
Fri 02:49:03 AM 50.4000 -55.5833 62° Northeast 530 610 42,900  Level Gander Center
Fri 02:50:03 AM 50.4667 -55.3667 64° Northeast 520 598 42,900  Level Gander Center
Fri 02:51:03 AM 50.5333 -55.1833 60° Northeast 520 598 42,900  Level Gander Center
Fri 02:52:03 AM 50.6000 -54.9500 66° East 520 598 42,900  Level Gander Center
Fri 02:53:03 AM 50.6500 -54.7667 67° East 520 598 42,900  Level Gander Center
Fri 02:54:03 AM 50.7333 -54.5333 60° Northeast 520 598 42,900  Level Gander Center
Fri 02:55:03 AM 50.7833 -54.3500 67° East 520 598 42,900  Level Gander Center
Fri 02:56:03 AM 50.8500 -54.1167 66° East 520 598 42,900  Level Gander Center
Fri 02:57:03 AM 50.9000 -53.9333 67° East 520 598 42,900  Level Gander Center
Fri 02:58:03 AM 50.9667 -53.7333 62° Northeast 530 610 42,900  Level Gander Center
Fri 02:59:03 AM 51.0333 -53.5167 64° Northeast 530 610 42,900  Level Gander Center
Fri 03:00:03 AM 51.0833 -53.3167 68° East 520 598 42,900  Level Gander Center
Fri 03:01:03 AM 51.1500 -53.0833 65° Northeast 520 598 42,900  Level Gander Center
Fri 03:02:03 AM 51.2000 -52.8833 68° East 520 598 42,900  Level Gander Center
Fri 03:03:03 AM 51.2667 -52.6667 64° Northeast 520 598 42,900  Level Gander Center
Fri 03:04:03 AM 51.3333 -52.4667 62° Northeast 520 598 42,900  Level Gander Center
Fri 03:05:03 AM 51.3833 -52.2333 71° East 520 598 42,900  Level Gander Center
Fri 03:06:03 AM 51.4500 -52.0333 62° Northeast 510 587 42,900  Level Gander Center
Fri 03:07:03 AM 51.5000 -51.8333 68° East 510 587 42,900  Level Gander Center
Fri 03:08:03 AM 51.5667 -51.6000 65° Northeast 510 587 42,900  Level Gander Center
Fri 03:09:03 AM 51.6167 -51.4000 68° East 510 587 42,900  Level Gander Center
Fri 03:10:03 AM 51.6833 -51.1667 65° Northeast 500 575 42,900  Level Gander Center
Fri 03:11:03 AM 51.7333 -50.9667 68° East 510 587 42,900  Level Gander Center
Fri 03:12:03 AM 51.7833 -50.7667 68° East 510 587 42,900  Level Gander Center
Fri 03:13:03 AM 51.8333 -50.5333 71° East 510 587 42,900  Level Gander Center
Fri 03:14:03 AM 51.8833 -50.3667 64° Northeast 510 587 42,900  Level Gander Center
Fri 03:15:03 AM 51.9500 -50.1333 65° Northeast 510 587 42,900  Level Gander Center
Fri 03:16:03 AM 52.0000 -49.9167 69° East 510 587 42,900 51 Level Gander Center
Fri 03:17:00 AM 52.0000 -50.0000 68° East 506 582 43,000 13 Climbing ETMS Enhanced Traffic Management System
Fri 03:24:00 AM 52.4660 -48.0761 69° East 506 582 43,000  Level FlightAware Transoceanic
Fri 03:25:00 AM 52.5158 -47.8598 69° East 506 582 43,000  Level FlightAware Transoceanic
Fri 03:26:00 AM 52.5653 -47.6431 70° East 506 582 43,000  Level FlightAware Transoceanic
Fri 03:27:00 AM 52.6143 -47.4258 70° East 506 582 43,000  Level FlightAware Transoceanic
Fri 03:28:00 AM 52.6629 -47.2081 70° East 506 582 43,000  Level FlightAware Transoceanic
Fri 03:29:00 AM 52.7112 -46.9899 70° East 506 582 43,000  Level FlightAware Transoceanic
Fri 03:30:00 AM 52.7590 -46.7713 70° East 506 582 43,000  Level FlightAware Transoceanic
Fri 03:31:00 AM 52.8065 -46.5521 70° East 506 582 43,000  Level FlightAware Transoceanic
Fri 03:32:00 AM 52.8535 -46.3325 71° East 506 582 43,000  Level FlightAware Transoceanic
Fri 03:33:00 AM 52.9001 -46.1124 71° East 506 582 43,000  Level FlightAware Transoceanic
Fri 03:34:00 AM 52.9463 -45.8918 71° East 506 582 43,000  Level FlightAware Transoceanic
Fri 03:35:00 AM 52.9921 -45.6708 71° East 506 582 43,000  Level FlightAware Transoceanic
Fri 03:36:00 AM 53.0376 -45.4492 71° East 506 582 43,000  Level FlightAware Transoceanic
Fri 03:37:00 AM 53.0825 -45.2273 71° East 506 582 43,000  Level FlightAware Transoceanic
Fri 03:38:00 AM 53.1271 -45.0048 72° East 506 582 43,000  Level FlightAware Transoceanic
Fri 03:39:00 AM 53.1713 -44.7819 72° East 506 582 43,000  Level FlightAware Transoceanic
Fri 03:40:00 AM 53.2150 -44.5586 72° East 506 582 43,000  Level FlightAware Transoceanic
Fri 03:41:00 AM 53.2583 -44.3348 72° East 506 582 43,000  Level FlightAware Transoceanic
Fri 03:42:00 AM 53.3012 -44.1105 72° East 506 582 43,000  Level FlightAware Transoceanic
Fri 03:43:00 AM 53.3437 -43.8858 73° East 506 582 43,000  Level FlightAware Transoceanic
Fri 03:44:00 AM 53.3858 -43.6606 73° East 506 582 43,000  Level FlightAware Transoceanic
Fri 03:45:00 AM 53.4274 -43.4350 73° East 506 582 43,000  Level FlightAware Transoceanic
Fri 03:46:00 AM 53.4686 -43.2090 73° East 506 582 43,000  Level FlightAware Transoceanic
Fri 03:47:00 AM 53.5094 -42.9825 73° East 506 582 43,000  Level FlightAware Transoceanic
Fri 03:48:00 AM 53.5498 -42.7556 73° East 506 582 43,000  Level FlightAware Transoceanic
Fri 03:49:00 AM 53.5897 -42.5283 74° East 506 582 43,000  Level FlightAware Transoceanic
Fri 03:50:00 AM 53.6292 -42.3005 74° East 506 582 43,000  Level FlightAware Transoceanic
Fri 03:51:00 AM 53.6682 -42.0723 74° East 506 582 43,000  Level FlightAware Transoceanic
Fri 03:52:00 AM 53.7068 -41.8437 74° East 506 582 43,000  Level FlightAware Transoceanic
Fri 03:53:00 AM 53.7450 -41.6146 74° East 506 582 43,000  Level FlightAware Transoceanic
Fri 03:54:00 AM 53.7828 -41.3852 75° East 506 582 43,000  Level FlightAware Transoceanic
Fri 03:55:00 AM 53.8201 -41.1553 75° East 506 582 43,000  Level FlightAware Transoceanic
Fri 03:56:00 AM 53.8569 -40.9251 75° East 506 582 43,000  Level FlightAware Transoceanic
Fri 03:57:00 AM 53.8934 -40.6944 75° East 506 582 43,000  Level FlightAware Transoceanic
Fri 03:58:00 AM 53.9294 -40.4633 75° East 506 582 43,000  Level FlightAware Transoceanic
Fri 03:59:00 AM 53.9649 -40.2319 75° East 506 582 43,000 286 Level FlightAware Transoceanic
Fri 04:00:00 AM 53.9995 -40.0030 75° East  Level FlightAware Approximate
Fri 04:01:00 AM 54.0340 -39.7739 76° East  Level FlightAware Approximate
Fri 04:02:00 AM 53.9868 -39.7710 95° East  Level FlightAware Approximate
Fri 04:03:00 AM 53.9729 -39.5359 96° East  Level FlightAware Approximate
Fri 04:04:00 AM 53.9584 -39.3010 96° East  Level FlightAware Approximate
Fri 04:05:00 AM 53.9435 -39.0663 96° East  Level FlightAware Approximate
Fri 04:05:00 AM 54.0000 -40.0000 95° East 504 580 45,000  Level ETMS Enhanced Traffic Management System
Fri 04:06:00 AM 53.9282 -38.8317 96° East  Level FlightAware Approximate
Fri 04:07:00 AM 53.9123 -38.5973 96° East  Level FlightAware Approximate
Fri 04:08:00 AM 53.8961 -38.3631 97° East  Level FlightAware Approximate
Fri 04:09:00 AM 53.8793 -38.1291 97° East  Level FlightAware Approximate
Fri 04:10:00 AM 53.8622 -37.8952 97° East  Level FlightAware Approximate
Fri 04:11:00 AM 53.8425 -37.6351 97° East 504 580 45,000  Level FlightAware Transoceanic
Fri 04:12:00 AM 53.8242 -37.3997 98° East 504 580 45,000  Level FlightAware Transoceanic
Fri 04:13:00 AM 53.8054 -37.1644 98° East 504 580 45,000  Level FlightAware Transoceanic
Fri 04:14:00 AM 53.7862 -36.9294 98° East 504 580 45,000  Level FlightAware Transoceanic
Fri 04:15:00 AM 53.7665 -36.6946 98° East 504 580 45,000  Level FlightAware Transoceanic
Fri 04:16:00 AM 53.7464 -36.4600 98° East 504 580 45,000  Level FlightAware Transoceanic
Fri 04:17:00 AM 53.7258 -36.2256 99° East 504 580 45,000  Level FlightAware Transoceanic
Fri 04:18:00 AM 53.7047 -35.9915 99° East 504 580 45,000  Level FlightAware Transoceanic
Fri 04:19:00 AM 53.6832 -35.7576 99° East 504 580 45,000  Level FlightAware Transoceanic
Fri 04:20:00 AM 53.6613 -35.5239 99° East 504 580 45,000  Level FlightAware Transoceanic
Fri 04:21:00 AM 53.6389 -35.2905 99° East 504 580 45,000  Level FlightAware Transoceanic
Fri 04:22:00 AM 53.6160 -35.0574 99° East 504 580 45,000  Level FlightAware Transoceanic
Fri 04:23:00 AM 53.5927 -34.8245 100° East 504 580 45,000  Level FlightAware Transoceanic
Fri 04:24:00 AM 53.5689 -34.5918 100° East 504 580 45,000  Level FlightAware Transoceanic
Fri 04:25:00 AM 53.5447 -34.3594 100° East 504 580 45,000  Level FlightAware Transoceanic
Fri 04:26:00 AM 53.5200 -34.1273 100° East 504 580 45,000  Level FlightAware Transoceanic
Fri 04:27:00 AM 53.4949 -33.8955 100° East 504 580 45,000  Level FlightAware Transoceanic
Fri 04:28:00 AM 53.4693 -33.6639 101° East 504 580 45,000  Level FlightAware Transoceanic
Fri 04:29:00 AM 53.4433 -33.4327 101° East 504 580 45,000  Level FlightAware Transoceanic
Fri 04:30:00 AM 53.4168 -33.2017 101° East 504 580 45,000  Level FlightAware Transoceanic
Fri 04:31:00 AM 53.3899 -32.9710 101° East 504 580 45,000  Level FlightAware Transoceanic
Fri 04:32:00 AM 53.3625 -32.7405 101° East 504 580 45,000  Level FlightAware Transoceanic
Fri 04:33:00 AM 53.3347 -32.5104 102° East 504 580 45,000  Level FlightAware Transoceanic
Fri 04:34:00 AM 53.3065 -32.2806 102° East 504 580 45,000  Level FlightAware Transoceanic
Fri 04:35:00 AM 53.2778 -32.0511 102° East 504 580 45,000  Level FlightAware Transoceanic
Fri 04:36:00 AM 53.2487 -31.8219 102° East 504 580 45,000  Level FlightAware Transoceanic
Fri 04:37:00 AM 53.2191 -31.5930 102° East 504 580 45,000  Level FlightAware Transoceanic
Fri 04:38:00 AM 53.1891 -31.3645 102° East 504 580 45,000  Level FlightAware Transoceanic
Fri 04:39:00 AM 53.1587 -31.1362 103° East 504 580 45,000  Level FlightAware Transoceanic
Fri 04:40:00 AM 53.1278 -30.9083 103° East 504 580 45,000  Level FlightAware Transoceanic
Fri 04:41:00 AM 53.0965 -30.6807 103° East 504 580 45,000  Level FlightAware Transoceanic
Fri 04:42:00 AM 53.0648 -30.4535 103° East 504 580 45,000  Level FlightAware Transoceanic
Fri 04:43:00 AM 53.0326 -30.2266 103° East 504 580 45,000  Level FlightAware Transoceanic
Fri 04:44:00 AM 53.0003 -30.0019 103° East  Level FlightAware Approximate
Fri 04:45:00 AM 52.9677 -29.7776 103° East  Level FlightAware Approximate
Fri 04:46:00 AM 52.9871 -29.7742 95° East  Level FlightAware Approximate
Fri 04:47:00 AM 52.9735 -29.5445 96° East  Level FlightAware Approximate
Fri 04:48:00 AM 52.9595 -29.3150 96° East  Level FlightAware Approximate
Fri 04:49:00 AM 52.9450 -29.0856 96° East  Level FlightAware Approximate
Fri 04:49:00 AM 53.0000 -30.0000 95° East 504 580 45,000  Level ETMS Enhanced Traffic Management System
Fri 04:50:00 AM 52.9301 -28.8564 96° East  Level FlightAware Approximate
Fri 04:51:00 AM 52.9148 -28.6274 96° East  Level FlightAware Approximate
Fri 04:52:00 AM 52.8990 -28.3985 96° East  Level FlightAware Approximate
Fri 04:53:00 AM 52.8828 -28.1698 97° East  Level FlightAware Approximate
Fri 04:54:00 AM 52.8661 -27.9412 97° East  Level FlightAware Approximate
Fri 04:55:00 AM 52.8296 -27.4600 97° East 504 580 45,000  Level FlightAware Transoceanic
Fri 04:56:00 AM 52.8114 -27.2302 98° East 504 580 45,000  Level FlightAware Transoceanic
Fri 04:57:00 AM 52.7928 -27.0005 98° East 504 580 45,000  Level FlightAware Transoceanic
Fri 04:58:00 AM 52.7738 -26.7710 98° East 504 580 45,000  Level FlightAware Transoceanic
Fri 04:59:00 AM 52.7542 -26.5418 98° East 504 580 45,000  Level FlightAware Transoceanic
Fri 05:00:00 AM 52.7343 -26.3127 98° East 504 580 45,000  Level FlightAware Transoceanic
Fri 05:01:00 AM 52.7139 -26.0839 98° East 504 580 45,000  Level FlightAware Transoceanic
Fri 05:02:00 AM 52.6931 -25.8552 99° East 504 580 45,000  Level FlightAware Transoceanic
Fri 05:03:00 AM 52.6718 -25.6268 99° East 504 580 45,000  Level FlightAware Transoceanic
Fri 05:04:00 AM 52.6502 -25.3987 99° East 504 580 45,000  Level FlightAware Transoceanic
Fri 05:05:00 AM 52.6280 -25.1707 99° East 504 580 45,000  Level FlightAware Transoceanic
Fri 05:06:00 AM 52.6054 -24.9430 99° East 504 580 45,000  Level FlightAware Transoceanic
Fri 05:07:00 AM 52.5824 -24.7155 100° East 504 580 45,000  Level FlightAware Transoceanic
Fri 05:08:00 AM 52.5590 -24.4883 100° East 504 580 45,000  Level FlightAware Transoceanic
Fri 05:09:00 AM 52.5351 -24.2613 100° East 504 580 45,000  Level FlightAware Transoceanic
Fri 05:10:00 AM 52.5108 -24.0345 100° East 504 580 45,000  Level FlightAware Transoceanic
Fri 05:11:00 AM 52.4860 -23.8080 100° East 504 580 45,000  Level FlightAware Transoceanic
Fri 05:12:00 AM 52.4609 -23.5818 100° East 504 580 45,000  Level FlightAware Transoceanic
Fri 05:13:00 AM 52.4352 -23.3558 101° East 504 580 45,000  Level FlightAware Transoceanic
Fri 05:14:00 AM 52.4092 -23.1301 101° East 504 580 45,000  Level FlightAware Transoceanic
Fri 05:15:00 AM 52.3827 -22.9046 101° East 504 580 45,000  Level FlightAware Transoceanic
Fri 05:16:00 AM 52.3558 -22.6795 101° East 504 580 45,000  Level FlightAware Transoceanic
Fri 05:17:00 AM 52.3285 -22.4546 101° East 504 580 45,000  Level FlightAware Transoceanic
Fri 05:18:00 AM 52.3008 -22.2300 102° East 504 580 45,000  Level FlightAware Transoceanic
Fri 05:19:00 AM 52.2726 -22.0056 102° East 504 580 45,000  Level FlightAware Transoceanic
Fri 05:20:00 AM 52.2440 -21.7816 102° East 504 580 45,000  Level FlightAware Transoceanic
Fri 05:21:00 AM 52.2150 -21.5578 102° East 504 580 45,000  Level FlightAware Transoceanic
Fri 05:22:00 AM 52.1855 -21.3344 102° East 504 580 45,000  Level FlightAware Transoceanic
Fri 05:23:00 AM 52.1556 -21.1112 102° East 504 580 45,000  Level FlightAware Transoceanic
Fri 05:24:00 AM 52.1254 -20.8884 103° East 504 580 45,000  Level FlightAware Transoceanic
Fri 05:25:00 AM 52.0946 -20.6658 103° East 504 580 45,000  Level FlightAware Transoceanic
Fri 05:26:00 AM 52.0635 -20.4436 103° East 504 580 45,000  Level FlightAware Transoceanic
Fri 05:27:00 AM 52.0320 -20.2216 103° East 504 580 45,000 33 Level FlightAware Transoceanic
Fri 05:28:00 AM 52.0003 -20.0018 103° East  Level FlightAware Approximate
Fri 05:29:00 AM 51.9685 -19.7822 103° East  Level FlightAware Approximate
Fri 05:30:00 AM 51.9604 -19.7876 107° East  Level FlightAware Approximate
Fri 05:31:00 AM 51.9198 -19.5721 107° East  Level FlightAware Approximate
Fri 05:32:00 AM 51.8788 -19.3570 107° East  Level FlightAware Approximate
Fri 05:33:00 AM 51.8374 -19.1422 107° East  Level FlightAware Approximate
Fri 05:34:00 AM 51.7956 -18.9279 107° East  Level FlightAware Approximate
Fri 05:35:00 AM 51.7534 -18.7139 108° East  Level FlightAware Approximate
Fri 05:36:00 AM 51.7109 -18.5004 108° East  Level FlightAware Approximate
Fri 05:37:00 AM 51.6679 -18.2872 108° East  Level FlightAware Approximate
Fri 05:38:00 AM 51.6246 -18.0745 108° East  Level FlightAware Approximate
Fri 05:39:00 AM 51.5809 -17.8621 108° East  Level FlightAware Approximate
Fri 05:40:00 AM 51.5368 -17.6502 108° East  Level FlightAware Approximate
Fri 05:41:00 AM 51.4923 -17.4387 109° East  Level FlightAware Approximate
Fri 05:42:00 AM 51.4474 -17.2276 109° East  Level FlightAware Approximate
Fri 05:43:00 AM 51.4022 -17.0169 109° East  Level FlightAware Approximate
Fri 05:44:00 AM 51.3565 -16.8067 109° East  Level FlightAware Approximate
Fri 05:45:00 AM 51.3105 -16.5968 109° East  Level FlightAware Approximate
Fri 05:46:00 AM 51.2642 -16.3874 109° East  Level FlightAware Approximate
Fri 05:47:00 AM 51.2174 -16.1784 110° East  Level FlightAware Approximate
Fri 05:48:00 AM 51.1703 -15.9698 110° East  Level FlightAware Approximate
Fri 05:49:00 AM 51.1228 -15.7617 110° East  Level FlightAware Approximate
Fri 05:50:00 AM 51.0750 -15.5539 110° East  Level FlightAware Approximate
Fri 05:51:00 AM 51.0268 -15.3467 110° East  Level FlightAware Approximate
Fri 05:52:00 AM 50.9782 -15.1398 110° East  Level FlightAware Approximate
Fri 05:53:00 AM 50.9292 -14.9334 111° Southeast  Level FlightAware Approximate
Fri 05:54:00 AM 50.8799 -14.7274 111° Southeast  Level FlightAware Approximate
Fri 05:55:00 AM 50.8302 -14.5218 111° Southeast  Level FlightAware Approximate
Fri 05:56:00 AM 50.7802 -14.3167 111° Southeast  Level FlightAware Approximate
Fri 05:57:00 AM 50.7298 -14.1121 111° Southeast  Level FlightAware Approximate
Fri 05:58:00 AM 50.6790 -13.9078 111° Southeast  Level FlightAware Approximate
Fri 05:59:00 AM 50.6279 -13.7040 112° Southeast  Level FlightAware Approximate
Fri 06:00:00 AM 50.5765 -13.5007 112° Southeast  Level FlightAware Approximate
Fri 06:01:00 AM 50.5247 -13.2978 112° Southeast  Level FlightAware Approximate
Fri 06:02:00 AM 50.4725 -13.0954 112° Southeast  Level FlightAware Approximate
Fri 06:03:00 AM 50.4200 -12.8933 112° Southeast  Level FlightAware Approximate
Fri 06:04:00 AM 50.3671 -12.6918 112° Southeast  Level FlightAware Approximate
Fri 06:05:00 AM 50.3139 -12.4907 112° Southeast  Level FlightAware Approximate
Fri 06:06:00 AM 50.2603 -12.2900 113° Southeast  Level FlightAware Approximate
Fri 06:07:00 AM 50.2064 -12.0899 113° Southeast  Level FlightAware Approximate
Fri 06:08:00 AM 50.1521 -11.8901 113° Southeast  Level FlightAware Approximate
Fri 06:09:00 AM 50.0976 -11.6908 113° Southeast  Level FlightAware Approximate
Fri 06:10:00 AM 50.0426 -11.4920 113° Southeast  Level FlightAware Approximate
Fri 06:11:00 AM 49.9874 -11.2936 113° Southeast  Level FlightAware Approximate
Fri 06:12:00 AM 49.9318 -11.0957 114° Southeast  Level FlightAware Approximate
Fri 06:13:00 AM 49.8758 -10.8982 114° Southeast  Level FlightAware Approximate
Fri 06:14:00 AM 49.8195 -10.7012 114° Southeast  Level FlightAware Approximate
Fri 06:15:00 AM 49.7629 -10.5046 114° Southeast  Level FlightAware Approximate
Fri 06:16:00 AM 49.7060 -10.3085 114° Southeast  Level FlightAware Approximate
Fri 06:17:00 AM 49.6487 -10.1129 114° Southeast  Level FlightAware Approximate
Fri 06:18:00 AM 49.5911 -9.9178 114° Southeast  Level FlightAware Approximate
Fri 06:19:00 AM 49.5332 -9.7231 115° Southeast  Level FlightAware Approximate
Fri 06:20:00 AM 49.4749 -9.5288 115° Southeast  Level FlightAware Approximate
Fri 06:21:00 AM 49.4163 -9.3350 115° Southeast  Level FlightAware Approximate
Fri 06:22:00 AM 49.3574 -9.1417 115° Southeast  Level FlightAware Approximate
Fri 06:23:00 AM 49.2982 -8.9489 115° Southeast  Level FlightAware Approximate
Fri 06:23:20 AM 49.6423 -8.9700 115° Southeast 488 562 46,900  Level FlightAware UK
Fri 06:23:50 AM 49.6184 -8.8728 111° Southeast 486 559 46,900  Level FlightAware UK
Fri 06:24:20 AM 49.5946 -8.7759 111° Southeast 486 559 46,900  Level FlightAware UK
Fri 06:24:50 AM 49.5707 -8.6789 111° Southeast 486 559 46,900  Level FlightAware UK
Fri 06:25:20 AM 49.5466 -8.5821 111° Southeast 486 559 46,900  Level FlightAware UK
Fri 06:25:50 AM 49.5223 -8.4854 111° Southeast 486 559 46,900  Level FlightAware UK
Fri 06:26:20 AM 49.4980 -8.3887 111° Southeast 486 559 46,900  Level FlightAware UK
Fri 06:26:50 AM 49.4737 -8.2921 111° Southeast 486 559 46,900  Level FlightAware UK
Fri 06:27:20 AM 49.4494 -8.1955 111° Southeast 488 562 46,900  Level FlightAware UK
Fri 06:27:50 AM 49.4249 -8.0990 111° Southeast 488 562 46,900  Level FlightAware UK
Fri 06:28:20 AM 49.4000 -8.0019 111° Southeast 488 562 46,900  Level FlightAware UK
Fri 06:28:50 AM 49.3752 -7.9055 111° Southeast 486 559 46,900  Level FlightAware UK
Fri 06:29:20 AM 49.3504 -7.8092 112° Southeast 486 559 46,900  Level FlightAware UK
Fri 06:29:50 AM 49.3256 -7.7128 111° Southeast 486 559 46,900  Level FlightAware UK
Fri 06:30:20 AM 49.3006 -7.6164 112° Southeast 488 562 46,900  Level FlightAware UK
Fri 06:30:50 AM 49.2754 -7.5202 112° Southeast 486 559 46,900  Level FlightAware UK
Fri 06:31:20 AM 49.2492 -7.4243 113° Southeast 488 562 46,900  Level FlightAware UK
Fri 06:31:50 AM 49.2162 -7.3327 119° Southeast 488 562 46,900  Level FlightAware UK
Fri 06:32:20 AM 49.1834 -7.2414 119° Southeast 488 562 46,900  Level FlightAware UK
Fri 06:32:50 AM 49.1505 -7.1502 119° Southeast 486 559 46,900  Level FlightAware UK
Fri 06:33:20 AM 49.1175 -7.0590 119° Southeast 486 559 46,900  Level FlightAware UK
Fri 06:33:50 AM 49.0845 -6.9679 119° Southeast 488 562 46,900  Level FlightAware UK
Fri 06:34:21 AM 49.0511 -6.8762 119° Southeast 488 562 46,900  Level FlightAware UK
Fri 06:34:51 AM 49.0179 -6.7850 119° Southeast 488 562 46,900  Level FlightAware UK
Fri 06:35:21 AM 48.9845 -6.6939 119° Southeast 490 564 46,900  Level FlightAware UK
Fri 06:35:57 AM 48.9445 -6.5851 119° Southeast 488 562 46,900  Level FlightAware UK
Fri 06:36:27 AM 48.9111 -6.4946 119° Southeast 490 564 46,900  Level FlightAware UK
Fri 06:37:03 AM 48.8712 -6.3859 119° Southeast 490 564 46,900  Level FlightAware UK
Fri 06:37:45 AM 48.8244 -6.2595 119° Southeast 490 564 46,900  Level FlightAware UK
Fri 06:38:15 AM 48.7907 -6.1696 120° Southeast 490 564 46,900  Level FlightAware UK
Fri 06:38:45 AM 48.7569 -6.0799 120° Southeast 490 564 46,900  Level FlightAware UK
Fri 06:39:15 AM 48.7233 -5.9903 120° Southeast 490 564 46,900  Level FlightAware UK
Fri 06:39:45 AM 48.6896 -5.9008 120° Southeast 490 564 46,900  Level FlightAware UK
Fri 06:40:21 AM 48.6488 -5.7931 120° Southeast 490 564 46,900  Level FlightAware UK
Fri 06:40:51 AM 48.6149 -5.7040 120° Southeast 490 564 46,900  Level FlightAware UK
Fri 06:41:21 AM 48.5809 -5.6151 120° Southeast 488 562 46,900  Level FlightAware UK
Fri 06:41:51 AM 48.5468 -5.5262 120° Southeast 488 562 46,900  Level FlightAware UK
Fri 06:42:21 AM 48.5132 -5.4370 120° Southeast 488 562 46,900  Level FlightAware UK
Fri 06:42:51 AM 48.4791 -5.3479 120° Southeast 490 564 46,900  Level FlightAware UK
Fri 06:43:45 AM 48.4169 -5.1881 120° Southeast 490 564 46,900  Level FlightAware UK
Fri 06:44:39 AM 48.3557 -5.0271 120° Southeast 490 564 46,900  Level FlightAware UK
Fri 06:45:21 AM 48.3135 -4.8979 116° Southeast 490 564 46,900  Level FlightAware UK
Fri 06:45:51 AM 48.2847 -4.8043 115° Southeast 490 564 46,900  Level FlightAware UK
Fri 06:46:21 AM 48.2580 -4.7101 113° Southeast 490 564 46,900  Level FlightAware UK
Fri 06:48:00 AM 48.1621 -4.3977 115° Southeast  Level Estimated
Fri 06:55:00 AM 47.7459 -3.0851 115° Southeast  Level Estimated
Fri 06:56:00 AM 47.6852 -2.8993 116° Southeast  Level Estimated
Fri 06:57:00 AM 47.6243 -2.7139 116° Southeast  Level Estimated
Fri 06:58:00 AM 47.5630 -2.5290 116° Southeast  Level Estimated
Fri 06:59:00 AM 47.5014 -2.3445 116° Southeast  Level Estimated
Fri 07:00:00 AM 47.4396 -2.1605 116° Southeast  Level Estimated
Fri 07:01:00 AM 47.3774 -1.9769 117° Southeast  Level Estimated
Fri 07:02:00 AM 47.3150 -1.7937 117° Southeast  Level Estimated
Fri 07:03:00 AM 47.2522 -1.6109 117° Southeast  Level Estimated
Fri 07:04:00 AM 47.1892 -1.4286 117° Southeast  Level Estimated
Fri 07:05:00 AM 47.1259 -1.2467 117° Southeast  Level Estimated
Fri 07:06:00 AM 47.0623 -1.0653 117° Southeast  Level Estimated
Fri 07:07:00 AM 46.9984 -0.8842 117° Southeast  Level Estimated
Fri 07:08:00 AM 46.9342 -0.7037 117° Southeast  Level Estimated
Fri 07:09:00 AM 46.8698 -0.5235 118° Southeast  Level Estimated
Fri 07:10:00 AM 46.8051 -0.3438 118° Southeast  Level Estimated
Fri 07:11:00 AM 46.7400 -0.1645 118° Southeast  Level Estimated
Fri 07:12:00 AM 46.6747 0.0143 118° Southeast  Level Estimated
Fri 07:13:00 AM 46.6092 0.1928 118° Southeast  Level Estimated
Fri 07:14:00 AM 46.5433 0.3708 118° Southeast  Level Estimated
Fri 07:15:00 AM 46.4772 0.5483 118° Southeast  Level Estimated
Fri 07:16:00 AM 46.4108 0.7254 118° Southeast  Level Estimated
Fri 07:17:00 AM 46.3441 0.9021 119° Southeast  Level Estimated
Fri 07:18:00 AM 46.2772 1.0784 119° Southeast  Level Estimated
Fri 07:19:00 AM 46.2100 1.2542 119° Southeast  Level Estimated
Fri 07:20:00 AM 46.1425 1.4296 119° Southeast  Level Estimated
Fri 07:21:00 AM 46.0747 1.6046 119° Southeast  Level Estimated
Fri 07:22:00 AM 46.0067 1.7791 119° Southeast  Level Estimated
Fri 07:23:00 AM 45.9384 1.9532 119° Southeast  Level Estimated
Fri 07:24:00 AM 45.8699 2.1269 119° Southeast  Level Estimated
Fri 07:25:00 AM 45.8011 2.3002 120° Southeast  Level Estimated
Fri 07:26:00 AM 45.7320 2.4730 120° Southeast  Level Estimated
Fri 07:27:00 AM 45.6627 2.6454 120° Southeast  Level Estimated
Fri 07:28:00 AM 45.5931 2.8174 120° Southeast  Level Estimated
Fri 07:29:00 AM 45.5232 2.9889 120° Southeast  Level Estimated
Fri 07:30:00 AM 45.4531 3.1600 120° Southeast  Level Estimated
Fri 07:31:00 AM 45.3828 3.3307 120° Southeast  Level Estimated
Fri 07:32:00 AM 45.3122 3.5010 120° Southeast  Level Estimated
Fri 07:33:00 AM 45.2413 3.6708 121° Southeast  Level Estimated
Fri 07:34:00 AM 45.1702 3.8402 121° Southeast  Level Estimated
Fri 07:35:00 AM 45.0988 4.0092 121° Southeast  Level Estimated
Fri 07:36:00 AM 45.0272 4.1778 121° Southeast  Level Estimated
Fri 07:37:00 AM 44.9554 4.3460 121° Southeast  Level Estimated
Fri 07:38:00 AM 44.8833 4.5137 121° Southeast  Level Estimated
Fri 07:39:00 AM 44.8109 4.6810 121° Southeast  Level Estimated
Fri 07:40:00 AM 44.7383 4.8479 121° Southeast  Level Estimated
Fri 07:41:00 AM 44.6655 5.0143 122° Southeast  Level Estimated
Fri 07:42:00 AM 44.5924 5.1804 122° Southeast  Level Estimated
Fri 07:43:00 AM 44.5191 5.3460 122° Southeast  Level Estimated
Fri 07:44:00 AM 44.4455 5.5112 122° Southeast  Level Estimated
Fri 07:45:00 AM 44.3717 5.6760 122° Southeast  Level Estimated
Fri 07:46:00 AM 44.2977 5.8404 122° Southeast  Level Estimated
Fri 07:47:00 AM 44.2234 6.0044 122° Southeast  Level Estimated
Fri 07:48:00 AM 44.1489 6.1679 122° Southeast  Level Estimated
Fri 07:49:00 AM 44.0742 6.3311 122° Southeast  Level Estimated
Fri 07:50:00 AM 43.9992 6.4938 123° Southeast  Level Estimated
Fri 07:51:00 AM 43.9240 6.6561 123° Southeast  Level Estimated
Fri 07:52:00 AM 43.8486 6.8180 123° Southeast  Level Estimated
Fri 07:53:00 AM 43.7729 6.9795 123° Southeast  Level Estimated
Fri 07:54:00 AM 43.6971 7.1406 123° Southeast  Level Estimated
Fri 07:55:00 AM 43.6607 7.2176 123° Southeast  Level Estimated
Fri 07:56:00 AM 43.6607 7.2176 144° Southeast  Level Estimated
Fri 07:57:00 AM 43.6607 7.2176 144° Southeast  Level Estimated
Fri 07:58:00 AM 43.6607 7.2176 144° Southeast  Level Estimated
Fri 07:59:00 AM 43.6607 7.2176 144° Southeast  Level Estimated
Fri 08:00:00 AM 43.6607 7.2176 144° Southeast  Level Estimated
Fri 08:01:00 AM 43.6607 7.2176 144° Southeast  Level Estimated
Fri 08:02:00 AM 43.6607 7.2176 144° Southeast  Level Estimated
Fri 08:03:00 AM 43.6607 7.2176 144° Southeast  Level Estimated
Fri 08:04:00 AM 43.6607 7.2176 144° Southeast  Level Estimated
Fri 08:05:00 AM 43.6607 7.2176 144° Southeast  Level Estimated
Fri 08:06:00 AM 43.6607 7.2176 144° Southeast  Level Estimated
Fri 08:07:00 AM 43.6607 7.2176 144° Southeast  Level Estimated
Fri 08:08:00 AM 43.6607 7.2176 144° Southeast  Level Estimated
Fri 08:09:00 AM 43.6607 7.2176 144° Southeast  Level Estimated
Fri 08:10:00 AM 43.6607 7.2176 144° Southeast  Level Estimated
Fri 08:11:00 AM 43.6607 7.2176 144° Southeast  Level Estimated
Fri 08:12:00 AM 43.6607 7.2176 144° Southeast  Level Estimated
Fri 08:13:00 AM 43.6607 7.2176 144° Southeast  Level Estimated
Fri 08:14:00 AM 43.6607 7.2176 144° Southeast  Level Estimated

Login

Don't have an account? Register now (free) for customized features, flight alerts, and more!